Time;durP1;ratioP1;P1;durP2;ratioP2;P2;SDS_P1;SDS_P2;PMS_P1;PMS_P2;Temp;Humidity;BMP_temperature;BMP_pressure;BME280_temperature;BME280_humidity;BME280_pressure;Samples;Min_cycle;Max_cycle;Signal;HPM_P1;HPM_P2
2023/10/13 00:01:35;;;;;;;5.20;2.50;;;;;;;9.73;100.00;101113.20;105745;1258;72536;-76
2023/10/13 00:15:53;;;;;;;4.50;2.40;;;;;;;9.70;100.00;101080.02;102624;1294;600236;-79
2023/10/13 00:18:21;;;;;;;5.80;2.60;;;;;;;9.68;100.00;101089.04;105322;1257;60619;-76
2023/10/13 00:20:51;;;;;;;5.80;2.10;;;;;;;9.67;100.00;101092.02;105303;1263;60123;-79
2023/10/13 00:23:21;;;;;;;9.10;2.80;;;;;;;9.67;100.00;101095.00;105321;1262;71844;-75
2023/10/13 00:25:50;;;;;;;7.50;2.60;;;;;;;9.67;100.00;101091.88;105288;1263;65310;-76
2023/10/13 00:28:23;;;;;;;5.60;2.50;;;;;;;9.65;100.00;101092.82;105164;1263;203823;-78
2023/10/13 00:30:52;;;;;;;5.60;2.70;;;;;;;9.64;100.00;101082.40;105488;1257;60442;-77
2023/10/13 00:33:21;;;;;;;6.70;3.10;;;;;;;9.63;100.00;101082.66;105557;1259;60129;-80
2023/10/13 00:35:51;;;;;;;7.50;3.10;;;;;;;9.61;100.00;101087.43;105722;1260;72442;-76
2023/10/13 00:38:19;;;;;;;7.90;2.40;;;;;;;9.59;100.00;101083.19;105465;1260;63928;-78
2023/10/13 00:40:53;;;;;;;6.80;2.60;;;;;;;9.56;100.00;101084.36;105468;1262;71482;-77
2023/10/13 00:45:57;;;;;;;10.90;3.80;;;;;;;9.51;100.00;101082.83;105345;1261;59647;-75
2023/10/13 00:48:32;;;;;;;5.10;2.70;;;;;;;9.48;100.00;101079.67;105534;1260;72688;-78
2023/10/13 00:51:02;;;;;;;6.10;3.60;;;;;;;9.47;100.00;101082.89;105451;1259;62345;-81
2023/10/13 00:53:30;;;;;;;6.10;3.20;;;;;;;9.45;100.00;101083.69;105446;1257;72505;-77
2023/10/13 00:55:58;;;;;;;7.30;3.10;;;;;;;9.43;100.00;101082.54;105553;1260;60832;-74
2023/10/13 00:58:27;;;;;;;7.60;3.00;;;;;;;9.43;100.00;101082.58;105506;1259;59552;-77
2023/10/13 01:01:17;;;;;;;7.20;3.20;;;;;;;9.41;100.00;101080.19;105462;1260;75805;-79
2023/10/13 01:03:49;;;;;;;6.90;3.10;;;;;;;9.40;100.00;101081.99;105529;1254;63715;-76
2023/10/13 01:06:17;;;;;;;6.20;2.80;;;;;;;9.39;100.00;101085.35;105520;1253;72671;-76
2023/10/13 01:08:50;;;;;;;5.80;2.80;;;;;;;9.38;100.00;101087.13;105687;1254;62472;-77
2023/10/13 01:11:18;;;;;;;6.80;2.80;;;;;;;9.38;100.00;101081.89;105538;1254;60042;-75
2023/10/13 01:13:51;;;;;;;11.00;3.80;;;;;;;9.38;100.00;101081.77;105707;1260;75580;-76
2023/10/13 01:17:31;;;;;;;9.40;4.00;;;;;;;9.38;100.00;101077.38;102643;1289;599388;-80
2023/10/13 01:19:59;;;;;;;4.50;3.20;;;;;;;9.36;100.00;101081.52;105053;1264;60431;-78
2023/10/13 01:22:28;;;;;;;5.70;3.10;;;;;;;9.34;100.00;101075.81;105040;1267;59727;-75
2023/10/13 01:25:04;;;;;;;8.00;3.20;;;;;;;9.33;100.00;101067.31;104989;1263;71649;-79
2023/10/13 01:27:38;;;;;;;6.40;3.00;;;;;;;9.32;100.00;101059.67;104960;1262;62390;-77
2023/10/13 01:30:09;;;;;;;7.00;3.20;;;;;;;9.31;100.00;101058.69;104924;1259;226138;-79
2023/10/13 01:32:40;;;;;;;6.00;3.10;;;;;;;9.31;100.00;101058.52;105208;1259;60454;-77
2023/10/13 01:35:08;;;;;;;7.20;2.80;;;;;;;9.30;100.00;101064.46;105248;1263;59304;-80
2023/10/13 01:37:36;;;;;;;6.20;3.30;;;;;;;9.30;100.00;101067.81;105287;1258;71859;-78
2023/10/13 01:40:04;;;;;;;8.10;4.20;;;;;;;9.30;100.00;101067.10;105528;1262;63774;-77
2023/10/13 01:42:32;;;;;;;7.00;4.00;;;;;;;9.30;100.00;101062.20;105594;1260;71723;-77
2023/10/13 01:45:05;;;;;;;8.90;4.20;;;;;;;9.31;100.00;101066.70;105793;1257;61755;-75
2023/10/13 01:47:33;;;;;;;6.80;3.00;;;;;;;9.32;100.00;101063.86;105664;1256;59612;-75
2023/10/13 01:50:14;;;;;;;9.40;4.10;;;;;;;9.33;100.00;101066.10;105585;1261;72531;-76
2023/10/13 01:52:42;;;;;;;6.40;4.30;;;;;;;9.33;100.00;101070.79;105456;1255;62563;-77
2023/10/13 01:55:11;;;;;;;10.30;4.60;;;;;;;9.35;100.00;101073.34;105812;1257;71399;-76
2023/10/13 01:57:42;;;;;;;6.30;3.70;;;;;;;9.37;100.00;101070.45;106006;1256;60495;-76
2023/10/13 02:00:18;;;;;;;7.50;3.60;;;;;;;9.39;100.00;101078.21;105420;1260;59631;-75
2023/10/13 02:02:49;;;;;;;7.40;4.60;;;;;;;9.41;100.00;101071.82;105390;1256;71898;-75
2023/10/13 02:05:17;;;;;;;7.70;4.50;;;;;;;9.43;100.00;101077.83;105375;1260;63560;-76
2023/10/13 02:07:45;;;;;;;6.00;3.50;;;;;;;9.45;100.00;101073.56;105462;1260;72796;-76
2023/10/13 02:10:13;;;;;;;5.50;3.50;;;;;;;9.47;100.00;101065.27;105634;1260;61824;-75
2023/10/13 02:12:43;;;;;;;9.30;3.90;;;;;;;9.48;100.00;101062.43;105657;1261;59731;-75
2023/10/13 02:15:26;;;;;;;5.90;3.70;;;;;;;9.48;100.00;101073.56;105666;1260;71352;-76
2023/10/13 02:17:54;;;;;;;4.20;3.40;;;;;;;9.49;100.00;101075.11;105422;1255;62301;-75
2023/10/13 02:20:24;;;;;;;6.80;4.70;;;;;;;9.50;100.00;101078.89;105531;1257;71064;-76
2023/10/13 02:22:52;;;;;;;5.30;3.90;;;;;;;9.51;100.00;101073.78;105404;1257;61937;-78
2023/10/13 02:28:13;;;;;;;8.60;4.60;;;;;;;9.54;100.00;101067.02;105554;1256;72744;-80
2023/10/13 02:30:44;;;;;;;5.60;3.20;;;;;;;9.56;100.00;101069.89;105576;1257;62499;-77
2023/10/13 02:33:13;;;;;;;8.40;3.40;;;;;;;9.57;100.00;101074.89;105454;1262;72377;-79
2023/10/13 02:35:58;;;;;;;8.00;4.10;;;;;;;9.57;100.00;101067.73;105289;1257;61766;-76
2023/10/13 02:38:27;;;;;;;7.80;4.20;;;;;;;9.60;100.00;101066.56;105459;1262;59615;-78
2023/10/13 02:40:56;;;;;;;4.90;3.60;;;;;;;9.61;100.00;101064.09;105395;1261;73284;-77
2023/10/13 02:43:23;;;;;;;6.70;4.10;;;;;;;9.62;100.00;101056.16;105613;1254;67010;-78
2023/10/13 02:45:58;;;;;;;8.70;4.20;;;;;;;9.64;100.00;101053.61;105794;1254;71474;-76
2023/10/13 02:48:30;;;;;;;7.10;4.50;;;;;;;9.65;100.00;101056.17;105638;1256;60649;-76
2023/10/13 02:51:01;;;;;;;10.50;4.20;;;;;;;9.66;100.00;101055.61;105653;1253;59996;-79
2023/10/13 02:53:29;;;;;;;8.30;3.50;;;;;;;9.67;100.00;101057.84;105586;1253;73163;-76
2023/10/13 02:56:04;;;;;;;6.00;3.60;;;;;;;9.68;100.00;101061.46;105872;1259;64373;-74
2023/10/13 02:58:38;;;;;;;6.50;3.70;;;;;;;9.69;100.00;101067.34;105594;1254;73383;-76
2023/10/13 03:01:41;;;;;;;9.10;4.30;;;;;;;9.69;100.00;101060.16;105772;1259;61072;-76
2023/10/13 03:04:02;;;;;;;7.50;4.60;;;;;;;9.69;100.00;101054.76;105612;1256;59653;-76
2023/10/13 03:06:33;;;;;;;7.30;4.60;;;;;;;9.70;100.00;101050.34;105403;1253;71858;-76
2023/10/13 03:09:14;;;;;;;8.00;5.60;;;;;;;9.70;100.00;101049.45;105539;1253;66200;-78
2023/10/13 03:11:47;;;;;;;7.20;5.20;;;;;;;9.71;100.00;101047.84;105643;1253;72750;-76
2023/10/13 03:14:30;;;;;;;8.30;4.40;;;;;;;9.72;100.00;101044.50;105716;1256;60551;-76
2023/10/13 03:17:05;;;;;;;5.40;3.60;;;;;;;9.73;100.00;101039.55;105671;1259;59694;-77
2023/10/13 03:19:33;;;;;;;8.70;4.00;;;;;;;9.73;100.00;101039.36;105693;1256;73822;-78
2023/10/13 03:22:11;;;;;;;6.60;3.70;;;;;;;9.74;100.00;101041.42;105592;1256;63720;-78
2023/10/13 03:24:46;;;;;;;8.50;3.90;;;;;;;9.75;100.00;101043.45;105743;1251;71281;-75
2023/10/13 03:27:19;;;;;;;12.40;5.40;;;;;;;9.75;100.00;101039.59;105811;1251;60432;-76
2023/10/13 03:30:00;;;;;;;;;;;;;;;9.77;100.00;101033.08;105774;1250;60160;-78
2023/10/13 03:32:30;;;;;;;4.40;3.60;;;;;;;9.77;100.00;101038.29;105813;1256;75025;-77
2023/10/13 03:37:38;;;;;;;6.90;4.10;;;;;;;9.77;100.00;101032.35;105816;1255;72503;-76
2023/10/13 03:43:04;;;;;;;8.10;4.00;;;;;;;9.77;100.00;101020.33;105924;1256;60709;-77
2023/10/13 03:45:40;;;;;;;7.50;3.90;;;;;;;9.77;100.00;101022.41;105806;1251;73035;-77
2023/10/13 03:51:07;;;;;;;6.40;3.30;;;;;;;9.77;100.00;101029.23;105839;1252;72728;-77
2023/10/13 03:53:52;;;;;;;9.60;4.20;;;;;;;9.76;100.00;101026.83;105952;1253;60452;-74
2023/10/13 03:56:55;;;;;;;12.70;6.70;;;;;;;9.77;100.00;101028.57;105982;1256;60406;-77
2023/10/13 04:01:46;;;;;;;7.50;4.00;;;;;;;9.77;100.00;101036.20;105769;1250;63517;-78
2023/10/13 04:04:29;;;;;;;6.40;3.40;;;;;;;9.79;100.00;101038.05;105961;1250;70627;-76
2023/10/13 04:07:14;;;;;;;6.40;3.70;;;;;;;9.81;100.00;101034.47;105889;1253;60916;-75
2023/10/13 04:13:21;;;;;;;6.00;3.50;;;;;;;9.84;100.00;101042.15;105796;1253;73100;-77
2023/10/13 04:15:21;;;;;;;10.90;4.00;;;;;;;9.86;100.00;101043.59;105826;1250;62888;-77
2023/10/13 04:17:50;;;;;;;9.30;3.90;;;;;;;9.90;100.00;101051.45;105916;1256;73769;-76
2023/10/13 04:20:32;;;;;;;4.50;3.40;;;;;;;9.93;100.00;101063.01;105867;1251;61263;-78
2023/10/13 04:33:35;;;;;;;7.10;3.40;;;;;;;10.08;100.00;101081.96;105879;1256;59761;-78
2023/10/13 04:41:41;;;;;;;7.00;4.10;;;;;;;10.15;100.00;101076.05;105844;1256;64107;-76
2023/10/13 04:49:29;;;;;;;8.10;3.80;;;;;;;10.23;100.00;101085.76;105686;1250;59629;-78
2023/10/13 04:54:49;;;;;;;7.70;4.00;;;;;;;10.31;100.00;101088.88;105937;1251;63010;-77
2023/10/13 05:02:55;;;;;;;6.50;3.10;;;;;;;10.44;100.00;101107.98;105822;1256;59946;-78
2023/10/13 05:47:46;;;;;;;8.60;3.90;;;;;;;11.93;100.00;101127.92;105688;1250;72906;-76
2023/10/13 06:28:49;;;;;;;12.10;6.20;;;;;;;12.71;100.00;101162.97;105832;1250;73403;-75
2023/10/13 06:31:23;;;;;;;7.60;5.60;;;;;;;12.76;100.00;101166.14;105825;1255;62462;-77
2023/10/13 06:33:55;;;;;;;10.60;5.40;;;;;;;12.82;100.00;101165.95;105777;1256;70811;-79
2023/10/13 06:36:26;;;;;;;9.40;4.60;;;;;;;12.89;100.00;101177.63;105811;1256;61660;-78
2023/10/13 06:39:34;;;;;;;6.50;4.10;;;;;;;12.96;100.00;101175.48;105959;1261;60441;-75
2023/10/13 06:41:45;;;;;;;6.80;3.90;;;;;;;13.02;100.00;101176.81;105823;1256;73825;-75
2023/10/13 06:44:16;;;;;;;11.40;6.00;;;;;;;13.08;100.00;101172.96;105973;1255;62716;-76
2023/10/13 06:50:41;;;;;;;13.70;6.40;;;;;;;13.25;100.00;101172.44;105753;1256;61802;-77
2023/10/13 06:53:12;;;;;;;10.00;6.10;;;;;;;13.31;100.00;101171.39;105832;1255;60384;-78
2023/10/13 06:55:40;;;;;;;10.10;6.40;;;;;;;13.38;100.00;101171.48;105775;1256;76507;-78
2023/10/13 06:58:13;;;;;;;10.60;7.10;;;;;;;13.44;100.00;101171.45;105745;1251;63782;-76
2023/10/13 07:00:52;;;;;;;13.10;5.50;;;;;;;13.50;100.00;101174.59;105784;1254;71385;-76
2023/10/13 07:03:21;;;;;;;19.30;8.70;;;;;;;13.55;100.00;101188.52;105745;1255;62170;-76
2023/10/13 07:05:49;;;;;;;17.10;8.70;;;;;;;13.61;100.00;101183.21;105887;1257;60454;-76
2023/10/13 07:08:26;;;;;;;14.40;7.00;;;;;;;13.66;100.00;101180.27;106130;1252;73816;-78
2023/10/13 07:11:05;;;;;;;16.20;8.90;;;;;;;13.72;100.00;101171.98;105814;1256;63724;-76
2023/10/13 07:13:39;;;;;;;19.50;9.50;;;;;;;13.80;100.00;101161.63;105917;1251;72737;-76
2023/10/13 07:16:13;;;;;;;17.40;10.30;;;;;;;13.89;100.00;101162.98;105935;1254;62962;-78
2023/10/13 07:31:15;;;;;;;11.40;7.70;;;;;;;14.39;100.00;101163.55;102703;1289;601026;-77
2023/10/13 07:33:43;;;;;;;14.90;7.70;;;;;;;14.43;100.00;101162.73;104797;1272;60760;-78
2023/10/13 07:36:15;;;;;;;17.20;8.10;;;;;;;14.50;100.00;101170.54;104564;1273;59281;-80
2023/10/13 07:38:48;;;;;;;10.70;8.00;;;;;;;14.54;100.00;101175.05;104917;1266;71603;-76
2023/10/13 07:41:32;;;;;;;12.30;7.50;;;;;;;14.54;100.00;101177.66;104905;1264;62531;-75
2023/10/13 07:44:04;;;;;;;18.70;8.50;;;;;;;14.56;100.00;101174.92;104762;1267;241256;-76
2023/10/13 07:46:35;;;;;;;14.80;9.30;;;;;;;14.61;100.00;101179.48;105079;1263;61720;-76
2023/10/13 07:49:10;;;;;;;13.10;9.00;;;;;;;14.68;100.00;101183.23;104948;1266;59435;-77
2023/10/13 07:51:44;;;;;;;18.70;11.40;;;;;;;14.74;100.00;101189.88;105205;1264;71941;-76
2023/10/13 07:54:14;;;;;;;21.30;11.10;;;;;;;14.79;100.00;101197.29;105463;1256;62522;-77
2023/10/13 07:56:42;;;;;;;20.20;12.50;;;;;;;14.81;100.00;101188.69;105495;1257;73215;-76
2023/10/13 07:59:09;;;;;;;14.50;8.40;;;;;;;14.86;100.00;101186.41;105620;1259;61660;-76
2023/10/13 08:01:42;;;;;;;17.00;8.60;;;;;;;14.91;100.00;101186.61;105480;1257;61758;-77
2023/10/13 08:06:40;;;;;;;13.20;7.40;;;;;;;14.97;100.00;101188.09;105475;1262;63144;-77
2023/10/13 08:09:08;;;;;;;14.30;8.20;;;;;;;15.03;100.00;101191.27;105635;1270;72737;-78
2023/10/13 08:51:09;;;;;;;11.20;6.90;;;;;;;15.94;100.00;101200.11;106095;1251;72658;-76
2023/10/13 08:53:51;;;;;;;11.40;8.60;;;;;;;15.89;100.00;101173.27;106081;1250;60666;-75
2023/10/13 08:56:34;;;;;;;13.50;7.70;;;;;;;15.86;100.00;101153.76;106014;1254;60329;-77
2023/10/13 09:01:37;;;;;;;11.30;7.00;;;;;;;15.76;100.00;101125.40;106021;1253;63927;-76
2023/10/13 09:04:59;;;;;;;12.10;7.60;;;;;;;15.74;100.00;101119.03;106027;1250;72666;-76
2023/10/13 09:09:27;;;;;;;12.20;7.80;;;;;;;15.72;100.00;101127.25;106118;1251;60779;-76
2023/10/13 09:12:08;;;;;;;9.30;6.00;;;;;;;15.77;100.00;101124.67;105984;1253;73048;-75
2023/10/13 09:14:38;;;;;;;12.50;6.40;;;;;;;15.81;100.00;101125.59;106044;1253;63861;-77
2023/10/13 09:17:12;;;;;;;10.10;5.70;;;;;;;15.86;100.00;101140.23;106019;1250;72659;-77
2023/10/13 09:19:48;;;;;;;14.50;6.00;;;;;;;15.95;100.00;101148.76;105965;1254;61907;-76
2023/10/13 09:22:27;;;;;;;8.90;5.40;;;;;;;16.03;100.00;101162.59;106097;1249;60371;-75
2023/10/13 09:24:58;;;;;;;10.50;6.00;;;;;;;16.12;100.00;101173.55;106006;1253;73083;-74
2023/10/13 09:27:33;;;;;;;13.00;7.10;;;;;;;16.23;100.00;101177.37;105935;1254;63654;-74
2023/10/13 09:30:10;;;;;;;15.60;7.90;;;;;;;16.33;100.00;101177.43;106082;1253;72267;-77
2023/10/13 09:32:46;;;;;;;9.30;7.70;;;;;;;16.43;100.00;101183.95;106048;1253;61536;-76
2023/10/13 09:35:18;;;;;;;11.50;9.00;;;;;;;16.50;100.00;101190.09;105775;1251;60400;-77
2023/10/13 09:37:48;;;;;;;17.70;8.80;;;;;;;16.55;100.00;101186.01;105957;1250;71513;-78
2023/10/13 09:40:34;;;;;;;12.40;7.60;;;;;;;16.60;100.00;101181.77;106136;1253;63733;-76
2023/10/13 09:43:08;;;;;;;8.80;6.10;;;;;;;16.64;100.00;101178.97;105994;1253;73083;-75
2023/10/13 09:48:45;;;;;;;9.80;6.70;;;;;;;16.72;100.00;101158.40;105752;1251;61372;-76
2023/10/13 09:51:14;;;;;;;11.10;6.90;;;;;;;16.74;100.00;101160.38;106047;1253;73045;-77
2023/10/13 09:53:42;;;;;;;19.00;6.90;;;;;;;16.75;100.00;101158.87;106073;1250;63867;-77
2023/10/13 09:56:32;;;;;;;12.20;6.80;;;;;;;16.73;100.00;101162.06;106093;1253;73942;-77
2023/10/13 09:59:08;;;;;;;9.60;6.00;;;;;;;16.69;100.00;101164.34;106097;1253;61877;-77
2023/10/13 10:01:39;;;;;;;10.60;7.10;;;;;;;16.66;100.00;101164.36;106123;1250;60343;-77
2023/10/13 10:04:14;;;;;;;18.30;10.10;;;;;;;16.65;100.00;101161.98;106006;1251;73090;-77
2023/10/13 10:06:51;;;;;;;10.30;7.80;;;;;;;16.64;100.00;101155.84;106041;1253;63598;-77
2023/10/13 10:09:22;;;;;;;12.80;6.20;;;;;;;16.63;100.00;101148.71;106049;1253;71476;-76
2023/10/13 10:12:11;;;;;;;15.50;6.90;;;;;;;16.64;100.00;101149.52;105949;1254;61959;-75
2023/10/13 10:15:09;;;;;;;8.00;5.70;;;;;;;16.65;100.00;101139.16;106027;1251;60448;-78
2023/10/13 10:17:43;;;;;;;13.60;7.30;;;;;;;16.67;100.00;101136.73;106021;1251;71744;-78
2023/10/13 10:20:19;;;;;;;12.60;5.90;;;;;;;16.71;100.00;101141.71;106059;1250;63398;-79
2023/10/13 10:22:59;;;;;;;10.70;6.80;;;;;;;16.77;100.00;101152.70;106001;1251;72724;-76
2023/10/13 10:25:35;;;;;;;10.00;5.80;;;;;;;16.85;100.00;101157.95;105983;1251;62014;-76
2023/10/13 10:28:07;;;;;;;14.30;6.50;;;;;;;16.92;100.00;101153.37;105943;1250;60177;-75
2023/10/13 10:30:38;;;;;;;12.50;4.40;;;;;;;16.96;100.00;101149.17;105972;1249;73027;-79
2023/10/13 10:33:23;;;;;;;9.50;5.00;;;;;;;16.97;100.00;101152.95;105978;1250;63020;-79
2023/10/13 10:35:59;;;;;;;11.00;4.80;;;;;;;16.96;100.00;101159.58;105974;1251;74035;-77
2023/10/13 10:41:04;;;;;;;13.10;7.50;;;;;;;16.90;100.00;101180.71;105965;1249;59679;-77
2023/10/13 10:43:46;;;;;;;18.10;8.00;;;;;;;16.86;100.00;101177.69;105991;1250;72926;-79
2023/10/13 10:46:38;;;;;;;19.10;9.30;;;;;;;16.83;100.00;101175.48;105987;1249;62344;-78
2023/10/13 10:49:11;;;;;;;11.30;6.40;;;;;;;16.78;100.00;101185.89;106044;1253;70639;-77
2023/10/13 10:51:44;;;;;;;19.10;7.30;;;;;;;16.73;100.00;101197.94;106278;1253;61966;-78
2023/10/13 10:54:18;;;;;;;11.30;6.70;;;;;;;16.67;100.00;101202.58;106012;1253;59861;-76
2023/10/13 11:00:12;;;;;;;14.70;5.60;;;;;;;16.53;100.00;101202.92;106011;1253;64458;-75
2023/10/13 11:02:40;;;;;;;12.10;6.70;;;;;;;16.48;100.00;101202.66;106034;1251;72852;-75
2023/10/13 11:05:10;;;;;;;9.90;5.40;;;;;;;16.42;100.00;101202.89;106003;1253;62131;-76
2023/10/13 11:07:37;;;;;;;10.10;6.50;;;;;;;16.37;100.00;101199.91;106023;1250;60365;-76
2023/10/13 11:10:27;;;;;;;17.10;7.70;;;;;;;16.33;100.00;101197.58;105923;1256;72156;-76
2023/10/13 11:12:56;;;;;;;17.50;7.20;;;;;;;16.29;100.00;101194.14;106029;1253;65732;-77
2023/10/13 11:15:23;;;;;;;13.10;7.50;;;;;;;16.28;100.00;101187.35;106084;1251;72722;-77
2023/10/13 11:17:58;;;;;;;16.10;8.10;;;;;;;16.28;100.00;101183.30;105995;1256;61031;-74
2023/10/13 11:20:33;;;;;;;13.30;7.30;;;;;;;16.29;100.00;101191.67;106063;1253;59545;-74
2023/10/13 11:23:04;;;;;;;14.10;7.80;;;;;;;16.30;100.00;101200.47;106065;1253;73120;-74
2023/10/13 11:25:34;;;;;;;14.60;8.00;;;;;;;16.31;100.00;101205.45;106018;1253;64415;-75
2023/10/13 11:28:17;;;;;;;11.30;7.00;;;;;;;16.33;100.00;101205.48;106009;1253;71737;-76
2023/10/13 11:30:51;;;;;;;13.50;7.00;;;;;;;16.36;100.00;101209.30;105894;1251;59863;-77
2023/10/13 11:33:23;;;;;;;12.70;7.80;;;;;;;16.41;100.00;101199.63;105955;1251;59680;-77
2023/10/13 11:38:30;;;;;;;12.10;7.60;;;;;;;16.51;100.00;101200.63;105958;1253;64383;-78
2023/10/13 11:43:27;;;;;;;14.80;7.10;;;;;;;16.60;100.00;101205.77;106000;1253;61894;-76
2023/10/13 11:46:00;;;;;;;11.40;7.90;;;;;;;16.62;100.00;101206.89;105942;1251;60510;-76
2023/10/13 11:48:36;;;;;;;17.80;9.60;;;;;;;16.62;100.00;101205.96;106020;1253;71718;-77
2023/10/13 11:51:16;;;;;;;15.60;9.60;;;;;;;16.64;100.00;101212.16;105981;1253;63860;-75
2023/10/13 11:53:53;;;;;;;19.60;10.10;;;;;;;16.65;100.00;101210.73;106063;1253;72695;-77
2023/10/13 11:56:24;;;;;;;16.30;9.90;;;;;;;16.64;100.00;101212.89;105920;1253;61911;-78
2023/10/13 11:58:51;;;;;;;19.30;11.70;;;;;;;16.64;100.00;101210.73;105976;1249;60306;-75
2023/10/13 12:11:48;;;;;;;20.10;12.40;;;;;;;16.57;100.00;101204.73;105968;1253;60686;-76
2023/10/13 12:17:04;;;;;;;20.40;12.50;;;;;;;16.56;100.00;101209.92;105981;1253;63898;-76
2023/10/13 12:19:31;;;;;;;22.10;13.70;;;;;;;16.56;100.00;101216.84;106033;1251;72814;-77
2023/10/13 12:22:05;;;;;;;20.70;14.10;;;;;;;16.55;100.00;101214.96;105975;1250;61412;-76
2023/10/13 12:27:02;;;;;;;26.80;14.00;;;;;;;16.55;100.00;101214.13;106021;1252;72061;-75
2023/10/13 12:29:30;;;;;;;21.30;13.10;;;;;;;16.54;100.00;101213.65;106036;1255;64017;-77
2023/10/13 12:32:14;;;;;;;22.60;14.10;;;;;;;16.54;100.00;101210.29;106030;1250;72661;-77
2023/10/13 12:51:50;;;;;;;23.30;13.00;;;;;;;16.47;100.00;101224.25;106059;1250;60421;-78
2023/10/13 12:54:23;;;;;;;20.50;12.60;;;;;;;16.44;100.00;101222.87;106024;1250;73907;-75
2023/10/13 12:56:56;;;;;;;24.90;12.80;;;;;;;16.41;100.00;101221.02;105970;1253;63873;-76
2023/10/13 12:59:26;;;;;;;20.60;12.80;;;;;;;16.37;100.00;101217.20;105993;1250;72645;-78
2023/10/13 13:01:53;;;;;;;20.90;12.30;;;;;;;16.34;100.00;101217.23;105989;1253;61941;-77
2023/10/13 13:04:20;;;;;;;16.10;12.50;;;;;;;16.30;100.00;101218.64;106015;1251;60549;-77
2023/10/13 13:06:51;;;;;;;17.60;11.70;;;;;;;16.25;100.00;101220.92;105996;1252;73886;-77
2023/10/13 13:09:26;;;;;;;16.60;12.40;;;;;;;16.20;100.00;101224.46;105926;1250;65042;-76
2023/10/13 13:11:57;;;;;;;19.90;12.40;;;;;;;16.15;100.00;101224.63;105929;1251;72598;-76
2023/10/13 13:14:28;;;;;;;21.30;14.70;;;;;;;16.09;100.00;101219.10;105969;1255;62288;-76
2023/10/13 13:17:05;;;;;;;19.60;14.30;;;;;;;16.05;100.00;101221.17;106011;1253;60342;-78
2023/10/13 13:19:38;;;;;;;22.60;14.00;;;;;;;16.01;100.00;101224.81;105992;1253;75703;-77
2023/10/13 13:22:17;;;;;;;21.60;15.90;;;;;;;15.96;100.00;101226.24;106067;1251;65140;-79
2023/10/13 13:24:45;;;;;;;22.30;16.20;;;;;;;15.90;100.00;101223.98;105971;1253;72882;-77
2023/10/13 13:27:14;;;;;;;24.70;16.20;;;;;;;15.86;100.00;101225.02;105997;1250;62905;-75
2023/10/13 13:29:41;;;;;;;25.40;16.10;;;;;;;15.81;100.00;101222.06;105968;1250;60769;-77
2023/10/13 13:34:04;;;;;;;23.70;16.70;;;;;;;15.75;100.00;101228.27;102625;1293;599771;-78
2023/10/13 13:36:32;;;;;;;22.10;16.30;;;;;;;15.69;100.00;101228.70;104918;1269;64255;-76
2023/10/13 13:39:00;;;;;;;23.90;17.20;;;;;;;15.66;100.00;101231.54;104910;1264;59491;-76
2023/10/13 13:41:32;;;;;;;22.60;17.10;;;;;;;15.61;100.00;101231.03;104901;1264;70841;-76
2023/10/13 13:44:13;;;;;;;21.20;15.50;;;;;;;15.59;100.00;101235.63;104866;1269;66396;-79
2023/10/13 13:46:41;;;;;;;26.40;16.90;;;;;;;15.53;100.00;101236.84;108524;1264;265493;-76
2023/10/13 13:49:17;;;;;;;26.40;18.10;;;;;;;15.50;100.00;101236.71;108855;1263;60897;-74
2023/10/13 13:51:51;;;;;;;23.10;15.70;;;;;;;15.48;100.00;101240.93;108864;1263;57727;-77
2023/10/13 13:54:20;;;;;;;24.20;16.50;;;;;;;15.45;100.00;101242.52;108810;1262;71995;-75
2023/10/13 13:56:49;;;;;;;22.40;17.60;;;;;;;15.43;100.00;101239.02;108880;1262;63998;-75
2023/10/13 13:59:19;;;;;;;25.30;18.00;;;;;;;15.40;100.00;101240.58;108887;1262;71489;-76
2023/10/13 14:01:52;;;;;;;23.40;16.90;;;;;;;15.40;100.00;101245.74;109659;1251;61787;-73
2023/10/13 14:04:20;;;;;;;24.20;16.80;;;;;;;15.39;100.00;101245.98;109724;1250;58770;-76
2023/10/13 14:06:50;;;;;;;23.40;16.70;;;;;;;15.38;100.00;101249.03;109639;1250;73213;-74
2023/10/13 14:14:13;;;;;;;25.20;17.00;;;;;;;15.35;100.00;101252.07;104881;1266;60480;-75
2023/10/13 14:16:45;;;;;;;30.20;19.10;;;;;;;15.33;100.00;101253.61;104917;1270;59321;-77
2023/10/13 14:19:19;;;;;;;25.60;17.50;;;;;;;15.32;100.00;101248.59;104833;1265;70737;-74
2023/10/13 14:21:53;;;;;;;24.90;16.70;;;;;;;15.30;100.00;101248.69;104858;1266;63282;-74
2023/10/13 14:24:27;;;;;;;28.60;18.50;;;;;;;15.28;100.00;101247.41;104624;1271;293588;-76
2023/10/13 14:26:57;;;;;;;23.90;17.20;;;;;;;15.27;100.00;101250.47;104889;1264;61743;-75
2023/10/13 14:29:27;;;;;;;26.50;17.20;;;;;;;15.25;100.00;101255.73;104882;1263;60403;-76
2023/10/13 14:31:55;;;;;;;22.20;16.30;;;;;;;15.23;100.00;101260.98;105355;1257;71431;-75
2023/10/13 14:34:22;;;;;;;26.10;18.40;;;;;;;15.21;100.00;101262.88;105389;1257;61890;-77
2023/10/13 14:36:50;;;;;;;25.50;18.20;;;;;;;15.19;100.00;101268.45;105380;1260;71936;-76
2023/10/13 14:39:20;;;;;;;31.60;18.10;;;;;;;15.17;100.00;101270.73;105575;1259;59665;-76
2023/10/13 14:41:48;;;;;;;29.40;19.10;;;;;;;15.15;100.00;101273.88;105407;1254;59625;-77
2023/10/13 14:44:16;;;;;;;26.10;19.60;;;;;;;15.12;100.00;101277.42;105597;1254;71851;-76
2023/10/13 14:46:43;;;;;;;25.30;19.80;;;;;;;15.09;100.00;101282.52;105622;1253;63899;-76
2023/10/13 14:49:14;;;;;;;25.60;19.70;;;;;;;15.07;100.00;101282.04;105615;1253;72602;-74
2023/10/13 14:51:42;;;;;;;24.80;18.50;;;;;;;15.05;100.00;101285.34;105496;1257;60402;-75
2023/10/13 14:54:09;;;;;;;21.30;17.90;;;;;;;15.03;100.00;101285.27;105539;1253;60030;-74
2023/10/13 14:56:37;;;;;;;26.40;19.10;;;;;;;15.00;100.00;101287.04;105508;1253;73039;-75
2023/10/13 14:59:05;;;;;;;22.30;18.30;;;;;;;14.98;100.00;101289.11;105521;1259;63750;-75
2023/10/13 15:01:35;;;;;;;25.50;18.60;;;;;;;14.96;100.00;101289.93;105548;1254;71172;-79
2023/10/13 15:04:04;;;;;;;26.20;18.10;;;;;;;14.95;100.00;101291.43;105465;1259;60720;-74
2023/10/13 15:06:32;;;;;;;26.10;18.20;;;;;;;14.93;100.00;101294.90;105657;1259;59719;-74
2023/10/13 15:09:00;;;;;;;23.70;19.30;;;;;;;14.92;100.00;101301.69;105701;1254;73206;-74
2023/10/13 15:11:36;;;;;;;26.60;19.40;;;;;;;14.91;100.00;101298.23;105596;1254;65993;-76
2023/10/13 15:14:15;;;;;;;28.00;19.90;;;;;;;14.89;100.00;101302.58;105432;1259;72329;-77
2023/10/13 15:16:42;;;;;;;22.00;17.60;;;;;;;14.88;100.00;101305.84;105466;1259;61895;-75
2023/10/13 15:19:11;;;;;;;24.20;18.10;;;;;;;14.86;100.00;101310.71;105426;1261;59575;-77
2023/10/13 15:21:40;;;;;;;21.80;17.60;;;;;;;14.84;100.00;101313.14;105468;1262;74627;-77
2023/10/13 15:24:14;;;;;;;26.40;17.20;;;;;;;14.82;100.00;101314.85;105770;1254;63245;-79
2023/10/13 15:26:48;;;;;;;22.30;17.60;;;;;;;14.80;100.00;101318.30;105721;1254;70727;-77
2023/10/13 15:29:16;;;;;;;25.30;18.90;;;;;;;14.79;100.00;101324.73;105514;1259;60610;-75
2023/10/13 15:32:04;;;;;;;22.90;18.40;;;;;;;14.78;100.00;101325.51;105480;1259;59724;-77
2023/10/13 15:34:32;;;;;;;26.70;17.20;;;;;;;14.77;100.00;101329.30;105470;1259;73123;-76
2023/10/13 15:37:00;;;;;;;26.50;18.30;;;;;;;14.75;100.00;101332.26;105486;1259;63589;-75
2023/10/13 15:39:28;;;;;;;27.70;18.30;;;;;;;14.73;100.00;101338.02;105586;1253;72740;-75
2023/10/13 15:41:58;;;;;;;22.00;18.20;;;;;;;14.69;100.00;101339.61;105642;1259;60417;-75
2023/10/13 15:44:29;;;;;;;26.60;19.00;;;;;;;14.67;100.00;101342.58;105612;1255;60977;-76
2023/10/13 15:46:59;;;;;;;25.30;19.70;;;;;;;14.64;100.00;101340.30;105516;1259;72015;-75
2023/10/13 15:49:32;;;;;;;23.00;18.50;;;;;;;14.62;100.00;101330.59;105504;1259;62330;-77